Tuesday, February 20, 2018, 3:42 PM GMT
Back to Local

CWGL, Lagoon City

Location: , , Canada Lat: 44.533
Local Time: 3:42 PM GMT (15:42 GMT) Lon: -79.217
Time Zone: GMT Elev: 725 ft

Show me the last for .
Show Coded

Time T Td Feel RH Dir Speed Gust Alt SLP Vis Weather Sky Remarks
2018-02-20 15:00 44 43 40 95 120° 7 - - 29.99 0 None
2018-02-20 14:00 44 42 37 95 130° 13 - - 29.99 0 None
2018-02-20 13:00 43 42 39 95 120° 6 - - 29.99 0 None
2018-02-20 12:00 39 38 35 95 90° 5 - - 30.00 0 None
2018-02-20 11:00 37 36 31 95 100° 8 - - 30.00 0 None
2018-02-20 10:00 37 36 30 96 90° 9 - - 30.00 0 None
2018-02-20 09:00 37 36 29 96 90° 12 - - 29.99 0 None
2018-02-20 08:00 37 36 29 97 90° 10 - - 30.01 0 None
2018-02-20 07:00 36 35 30 96 70° 8 - - 30.01 0 None
2018-02-20 06:00 36 35 31 97 50° 6 - - 30.02 0 None
2018-02-20 05:00 36 35 32 96 80° 5 - - 30.03 0 None
2018-02-20 04:00 36 35 32 97 40° 5 - - 30.03 0 None
2018-02-20 03:00 36 35 32 96 50° 5 - - 30.03 0 None
2018-02-20 02:00 36 35 32 96 60° 5 - - 30.02 0 None
2018-02-20 01:00 36 35 31 96 50° 6 - - 30.03 0 None
2018-02-20 00:00 36 35 - 96 100° 2 - - 30.02 0 None
2018-02-19 23:00 36 35 33 95 80° 3 - - 30.03 0 None
2018-02-19 22:00 35 35 32 102 130° 3 - - 30.03 0 None
2018-02-19 21:00 37 35 33 95 140° 5 - - 30.02 0 None
2018-02-19 20:00 35 34 31 95 160° 5 - - 30.03 0 None
2018-02-19 19:00 35 33 28 91 160° 9 - - 30.02 0 None
2018-02-19 18:00 36 31 29 82 150° 10 - - 30.03 0 None
2018-02-19 17:00 35 30 32 82 160° 3 - - 30.06 0 None
2018-02-19 16:00 37 28 32 68 160° 6 - - 30.07 0 None

Support USWX by starting your Amazon purchase here.